sensor_id;sensor_type;location;lat;lon;timestamp;P1;durP1;ratioP1;P2;durP2;ratioP2
40433;SDS011;26146;51.114;5.654;2023-05-07T00:00:18;10.35;;;5.47;;
40433;SDS011;26146;51.114;5.654;2023-05-07T00:04:19;10.43;;;5.90;;
40433;SDS011;26146;51.114;5.654;2023-05-07T00:08:20;10.00;;;5.75;;
40433;SDS011;26146;51.114;5.654;2023-05-07T00:12:22;10.13;;;5.50;;
40433;SDS011;26146;51.114;5.654;2023-05-07T00:16:23;11.07;;;5.43;;
40433;SDS011;26146;51.114;5.654;2023-05-07T00:20:24;10.18;;;4.97;;
40433;SDS011;26146;51.114;5.654;2023-05-07T00:24:25;11.15;;;5.40;;
40433;SDS011;26146;51.114;5.654;2023-05-07T00:28:26;11.05;;;5.80;;
40433;SDS011;26146;51.114;5.654;2023-05-07T00:32:28;10.05;;;5.30;;
40433;SDS011;26146;51.114;5.654;2023-05-07T00:36:29;10.93;;;5.85;;
40433;SDS011;26146;51.114;5.654;2023-05-07T00:40:30;10.35;;;5.40;;
40433;SDS011;26146;51.114;5.654;2023-05-07T00:44:31;11.55;;;5.50;;
40433;SDS011;26146;51.114;5.654;2023-05-07T00:48:33;10.23;;;5.20;;
40433;SDS011;26146;51.114;5.654;2023-05-07T00:52:34;11.50;;;5.68;;
40433;SDS011;26146;51.114;5.654;2023-05-07T00:56:35;10.13;;;5.50;;
40433;SDS011;26146;51.114;5.654;2023-05-07T01:00:37;11.07;;;5.45;;
40433;SDS011;26146;51.114;5.654;2023-05-07T01:04:38;10.75;;;5.47;;
40433;SDS011;26146;51.114;5.654;2023-05-07T01:08:39;11.93;;;5.72;;
40433;SDS011;26146;51.114;5.654;2023-05-07T01:12:41;11.32;;;5.50;;
40433;SDS011;26146;51.114;5.654;2023-05-07T01:16:43;10.65;;;5.43;;
40433;SDS011;26146;51.114;5.654;2023-05-07T01:20:45;12.40;;;5.93;;
40433;SDS011;26146;51.114;5.654;2023-05-07T01:24:46;11.10;;;6.05;;
40433;SDS011;26146;51.114;5.654;2023-05-07T01:28:47;12.07;;;6.25;;
40433;SDS011;26146;51.114;5.654;2023-05-07T01:32:50;11.63;;;6.40;;
40433;SDS011;26146;51.114;5.654;2023-05-07T01:36:57;10.65;;;6.00;;
40433;SDS011;26146;51.114;5.654;2023-05-07T01:40:59;11.43;;;6.18;;
40433;SDS011;26146;51.114;5.654;2023-05-07T01:45:00;12.88;;;6.13;;
40433;SDS011;26146;51.114;5.654;2023-05-07T01:49:02;11.80;;;6.65;;
40433;SDS011;26146;51.114;5.654;2023-05-07T01:53:03;12.02;;;6.88;;
40433;SDS011;26146;51.114;5.654;2023-05-07T01:57:05;12.27;;;7.18;;
40433;SDS011;26146;51.114;5.654;2023-05-07T02:01:06;14.30;;;7.28;;
40433;SDS011;26146;51.114;5.654;2023-05-07T02:05:07;13.20;;;7.40;;
40433;SDS011;26146;51.114;5.654;2023-05-07T02:09:08;13.45;;;7.25;;
40433;SDS011;26146;51.114;5.654;2023-05-07T02:13:09;13.52;;;7.80;;
40433;SDS011;26146;51.114;5.654;2023-05-07T02:17:10;12.30;;;7.50;;
40433;SDS011;26146;51.114;5.654;2023-05-07T02:21:11;13.80;;;8.15;;
40433;SDS011;26146;51.114;5.654;2023-05-07T02:25:13;13.48;;;7.30;;
40433;SDS011;26146;51.114;5.654;2023-05-07T02:29:14;12.60;;;7.57;;
40433;SDS011;26146;51.114;5.654;2023-05-07T02:33:15;13.05;;;7.43;;
40433;SDS011;26146;51.114;5.654;2023-05-07T02:37:16;11.43;;;7.18;;
40433;SDS011;26146;51.114;5.654;2023-05-07T02:41:17;12.73;;;6.85;;
40433;SDS011;26146;51.114;5.654;2023-05-07T02:45:18;11.68;;;6.95;;
40433;SDS011;26146;51.114;5.654;2023-05-07T02:49:20;14.27;;;7.47;;
40433;SDS011;26146;51.114;5.654;2023-05-07T02:53:21;14.20;;;8.20;;
40433;SDS011;26146;51.114;5.654;2023-05-07T02:57:22;12.40;;;7.57;;
40433;SDS011;26146;51.114;5.654;2023-05-07T03:01:23;13.80;;;7.82;;
40433;SDS011;26146;51.114;5.654;2023-05-07T03:05:24;14.35;;;8.02;;
40433;SDS011;26146;51.114;5.654;2023-05-07T03:09:25;15.82;;;8.75;;
40433;SDS011;26146;51.114;5.654;2023-05-07T03:13:26;14.65;;;8.95;;
40433;SDS011;26146;51.114;5.654;2023-05-07T03:17:28;15.30;;;9.13;;
40433;SDS011;26146;51.114;5.654;2023-05-07T03:21:29;17.52;;;9.57;;
40433;SDS011;26146;51.114;5.654;2023-05-07T03:25:31;14.52;;;8.98;;
40433;SDS011;26146;51.114;5.654;2023-05-07T03:29:32;15.93;;;9.77;;
40433;SDS011;26146;51.114;5.654;2023-05-07T03:33:33;16.95;;;9.52;;
40433;SDS011;26146;51.114;5.654;2023-05-07T03:37:38;14.53;;;9.50;;
40433;SDS011;26146;51.114;5.654;2023-05-07T03:41:39;17.27;;;9.18;;
40433;SDS011;26146;51.114;5.654;2023-05-07T03:45:41;17.88;;;10.00;;
40433;SDS011;26146;51.114;5.654;2023-05-07T03:49:42;15.32;;;9.88;;
40433;SDS011;26146;51.114;5.654;2023-05-07T03:53:43;17.83;;;10.07;;
40433;SDS011;26146;51.114;5.654;2023-05-07T03:57:45;15.55;;;9.43;;
40433;SDS011;26146;51.114;5.654;2023-05-07T04:01:46;16.75;;;9.45;;
40433;SDS011;26146;51.114;5.654;2023-05-07T04:05:47;15.77;;;9.30;;
40433;SDS011;26146;51.114;5.654;2023-05-07T04:09:48;16.98;;;9.55;;
40433;SDS011;26146;51.114;5.654;2023-05-07T04:13:49;16.05;;;9.70;;
40433;SDS011;26146;51.114;5.654;2023-05-07T04:17:50;15.05;;;9.13;;
40433;SDS011;26146;51.114;5.654;2023-05-07T04:21:51;16.23;;;9.45;;
40433;SDS011;26146;51.114;5.654;2023-05-07T04:25:52;17.73;;;9.40;;
40433;SDS011;26146;51.114;5.654;2023-05-07T04:29:54;16.95;;;9.60;;
40433;SDS011;26146;51.114;5.654;2023-05-07T04:33:58;16.58;;;9.18;;
40433;SDS011;26146;51.114;5.654;2023-05-07T04:37:59;17.60;;;9.80;;
40433;SDS011;26146;51.114;5.654;2023-05-07T04:42:00;16.15;;;10.13;;
40433;SDS011;26146;51.114;5.654;2023-05-07T04:46:01;16.17;;;9.93;;
40433;SDS011;26146;51.114;5.654;2023-05-07T04:50:02;18.15;;;9.38;;
40433;SDS011;26146;51.114;5.654;2023-05-07T04:54:04;16.25;;;8.95;;
40433;SDS011;26146;51.114;5.654;2023-05-07T04:58:05;14.85;;;8.93;;
40433;SDS011;26146;51.114;5.654;2023-05-07T05:02:07;14.65;;;8.35;;
40433;SDS011;26146;51.114;5.654;2023-05-07T05:06:09;15.80;;;8.73;;
40433;SDS011;26146;51.114;5.654;2023-05-07T05:10:10;14.55;;;8.75;;
40433;SDS011;26146;51.114;5.654;2023-05-07T05:14:11;17.00;;;9.25;;
40433;SDS011;26146;51.114;5.654;2023-05-07T05:18:12;14.45;;;9.02;;
40433;SDS011;26146;51.114;5.654;2023-05-07T05:22:14;15.20;;;9.25;;
40433;SDS011;26146;51.114;5.654;2023-05-07T05:26:15;19.13;;;9.82;;
40433;SDS011;26146;51.114;5.654;2023-05-07T05:30:16;15.23;;;9.32;;
40433;SDS011;26146;51.114;5.654;2023-05-07T05:34:17;14.05;;;9.23;;
40433;SDS011;26146;51.114;5.654;2023-05-07T05:38:19;16.83;;;9.88;;
40433;SDS011;26146;51.114;5.654;2023-05-07T05:42:21;14.65;;;8.55;;
40433;SDS011;26146;51.114;5.654;2023-05-07T05:46:22;13.50;;;8.10;;
40433;SDS011;26146;51.114;5.654;2023-05-07T05:50:23;13.57;;;8.32;;
40433;SDS011;26146;51.114;5.654;2023-05-07T05:54:25;15.27;;;8.18;;
40433;SDS011;26146;51.114;5.654;2023-05-07T05:58:26;15.32;;;8.63;;
40433;SDS011;26146;51.114;5.654;2023-05-07T06:02:27;16.45;;;8.40;;
40433;SDS011;26146;51.114;5.654;2023-05-07T06:06:28;18.48;;;12.00;;
40433;SDS011;26146;51.114;5.654;2023-05-07T06:10:30;18.90;;;12.43;;
40433;SDS011;26146;51.114;5.654;2023-05-07T06:14:31;15.65;;;8.73;;
40433;SDS011;26146;51.114;5.654;2023-05-07T06:18:32;15.07;;;9.02;;
40433;SDS011;26146;51.114;5.654;2023-05-07T06:22:33;15.60;;;7.93;;
40433;SDS011;26146;51.114;5.654;2023-05-07T06:26:34;11.85;;;7.55;;
40433;SDS011;26146;51.114;5.654;2023-05-07T06:30:35;14.25;;;7.05;;
40433;SDS011;26146;51.114;5.654;2023-05-07T06:34:37;12.10;;;6.47;;
40433;SDS011;26146;51.114;5.654;2023-05-07T06:38:38;12.10;;;6.32;;
40433;SDS011;26146;51.114;5.654;2023-05-07T06:42:39;12.07;;;5.80;;
40433;SDS011;26146;51.114;5.654;2023-05-07T06:46:41;16.02;;;6.70;;
40433;SDS011;26146;51.114;5.654;2023-05-07T06:50:42;10.82;;;6.03;;
40433;SDS011;26146;51.114;5.654;2023-05-07T06:54:43;12.63;;;6.10;;
40433;SDS011;26146;51.114;5.654;2023-05-07T06:58:44;10.85;;;5.35;;
40433;SDS011;26146;51.114;5.654;2023-05-07T07:02:45;9.68;;;5.07;;
40433;SDS011;26146;51.114;5.654;2023-05-07T07:06:46;12.50;;;5.97;;
40433;SDS011;26146;51.114;5.654;2023-05-07T07:10:48;9.57;;;4.78;;
40433;SDS011;26146;51.114;5.654;2023-05-07T07:14:49;9.82;;;4.50;;
40433;SDS011;26146;51.114;5.654;2023-05-07T07:18:50;8.27;;;4.30;;
40433;SDS011;26146;51.114;5.654;2023-05-07T07:22:51;9.60;;;4.75;;
40433;SDS011;26146;51.114;5.654;2023-05-07T07:26:52;9.68;;;4.68;;
40433;SDS011;26146;51.114;5.654;2023-05-07T07:30:55;9.73;;;4.47;;
40433;SDS011;26146;51.114;5.654;2023-05-07T07:34:56;8.43;;;3.95;;
40433;SDS011;26146;51.114;5.654;2023-05-07T07:38:57;10.00;;;4.13;;
40433;SDS011;26146;51.114;5.654;2023-05-07T07:42:58;9.63;;;4.25;;
40433;SDS011;26146;51.114;5.654;2023-05-07T07:47:01;8.65;;;4.20;;
40433;SDS011;26146;51.114;5.654;2023-05-07T07:51:02;9.80;;;4.25;;
40433;SDS011;26146;51.114;5.654;2023-05-07T07:55:04;11.80;;;4.78;;
40433;SDS011;26146;51.114;5.654;2023-05-07T07:59:05;8.43;;;3.70;;
40433;SDS011;26146;51.114;5.654;2023-05-07T08:03:08;8.00;;;3.30;;
40433;SDS011;26146;51.114;5.654;2023-05-07T08:07:10;9.40;;;3.58;;
40433;SDS011;26146;51.114;5.654;2023-05-07T08:11:11;8.40;;;3.40;;
40433;SDS011;26146;51.114;5.654;2023-05-07T08:15:12;6.57;;;2.83;;
40433;SDS011;26146;51.114;5.654;2023-05-07T08:19:13;6.88;;;2.90;;
40433;SDS011;26146;51.114;5.654;2023-05-07T08:23:15;7.70;;;2.95;;
40433;SDS011;26146;51.114;5.654;2023-05-07T08:27:16;8.05;;;3.20;;
40433;SDS011;26146;51.114;5.654;2023-05-07T08:31:17;6.05;;;2.63;;
40433;SDS011;26146;51.114;5.654;2023-05-07T08:35:18;7.93;;;2.38;;
40433;SDS011;26146;51.114;5.654;2023-05-07T08:39:19;7.40;;;2.55;;
40433;SDS011;26146;51.114;5.654;2023-05-07T08:43:20;6.45;;;2.25;;
40433;SDS011;26146;51.114;5.654;2023-05-07T08:47:24;7.67;;;2.50;;
40433;SDS011;26146;51.114;5.654;2023-05-07T08:51:33;7.07;;;2.20;;
40433;SDS011;26146;51.114;5.654;2023-05-07T08:55:35;5.88;;;2.05;;
40433;SDS011;26146;51.114;5.654;2023-05-07T08:59:36;5.35;;;1.50;;
40433;SDS011;26146;51.114;5.654;2023-05-07T09:03:38;6.65;;;1.80;;
40433;SDS011;26146;51.114;5.654;2023-05-07T09:07:39;7.32;;;2.00;;
40433;SDS011;26146;51.114;5.654;2023-05-07T09:11:41;5.70;;;1.92;;
40433;SDS011;26146;51.114;5.654;2023-05-07T09:15:42;6.90;;;2.90;;
40433;SDS011;26146;51.114;5.654;2023-05-07T09:19:43;7.78;;;2.67;;
40433;SDS011;26146;51.114;5.654;2023-05-07T09:23:47;8.15;;;3.10;;
40433;SDS011;26146;51.114;5.654;2023-05-07T09:27:50;7.15;;;3.13;;
40433;SDS011;26146;51.114;5.654;2023-05-07T09:31:52;7.63;;;2.70;;
40433;SDS011;26146;51.114;5.654;2023-05-07T09:35:53;8.13;;;2.85;;
40433;SDS011;26146;51.114;5.654;2023-05-07T09:39:54;8.32;;;2.83;;
40433;SDS011;26146;51.114;5.654;2023-05-07T09:43:55;7.30;;;2.38;;
40433;SDS011;26146;51.114;5.654;2023-05-07T09:47:57;8.27;;;2.38;;
40433;SDS011;26146;51.114;5.654;2023-05-07T09:51:59;6.90;;;2.30;;
40433;SDS011;26146;51.114;5.654;2023-05-07T09:56:02;7.60;;;2.95;;
40433;SDS011;26146;51.114;5.654;2023-05-07T10:00:03;7.60;;;2.45;;
40433;SDS011;26146;51.114;5.654;2023-05-07T10:04:06;7.00;;;2.70;;
40433;SDS011;26146;51.114;5.654;2023-05-07T10:08:08;7.53;;;2.42;;
40433;SDS011;26146;51.114;5.654;2023-05-07T10:12:10;6.93;;;2.60;;
40433;SDS011;26146;51.114;5.654;2023-05-07T10:16:11;6.95;;;2.30;;
40433;SDS011;26146;51.114;5.654;2023-05-07T10:20:12;7.47;;;2.85;;
40433;SDS011;26146;51.114;5.654;2023-05-07T10:24:16;7.97;;;2.42;;
40433;SDS011;26146;51.114;5.654;2023-05-07T10:28:22;6.47;;;2.20;;
40433;SDS011;26146;51.114;5.654;2023-05-07T10:36:48;8.20;;;2.53;;
40433;SDS011;26146;51.114;5.654;2023-05-07T10:40:51;7.22;;;2.30;;
40433;SDS011;26146;51.114;5.654;2023-05-07T10:44:52;5.50;;;1.92;;
40433;SDS011;26146;51.114;5.654;2023-05-07T10:57:39;6.25;;;1.90;;
40433;SDS011;26146;51.114;5.654;2023-05-07T11:01:49;6.05;;;2.10;;
40433;SDS011;26146;51.114;5.654;2023-05-07T11:10:22;6.95;;;2.25;;
40433;SDS011;26146;51.114;5.654;2023-05-07T11:14:43;6.55;;;2.13;;
40433;SDS011;26146;51.114;5.654;2023-05-07T11:18:55;6.35;;;1.80;;
40433;SDS011;26146;51.114;5.654;2023-05-07T11:22:57;6.90;;;1.63;;
40433;SDS011;26146;51.114;5.654;2023-05-07T11:26:58;7.15;;;2.00;;
40433;SDS011;26146;51.114;5.654;2023-05-07T11:30:59;7.47;;;2.10;;
40433;SDS011;26146;51.114;5.654;2023-05-07T11:35:00;8.35;;;2.30;;
40433;SDS011;26146;51.114;5.654;2023-05-07T11:39:02;7.80;;;2.08;;
40433;SDS011;26146;51.114;5.654;2023-05-07T11:43:12;9.30;;;2.50;;
40433;SDS011;26146;51.114;5.654;2023-05-07T11:47:17;8.07;;;1.70;;
40433;SDS011;26146;51.114;5.654;2023-05-07T11:51:20;8.10;;;1.88;;
40433;SDS011;26146;51.114;5.654;2023-05-07T11:55:23;5.68;;;1.65;;
40433;SDS011;26146;51.114;5.654;2023-05-07T11:59:25;6.20;;;1.60;;
40433;SDS011;26146;51.114;5.654;2023-05-07T12:03:26;7.22;;;1.45;;
40433;SDS011;26146;51.114;5.654;2023-05-07T12:07:27;6.80;;;1.55;;
40433;SDS011;26146;51.114;5.654;2023-05-07T12:11:28;6.22;;;1.80;;
40433;SDS011;26146;51.114;5.654;2023-05-07T12:15:30;8.23;;;2.20;;
40433;SDS011;26146;51.114;5.654;2023-05-07T12:19:31;6.55;;;1.83;;
40433;SDS011;26146;51.114;5.654;2023-05-07T12:23:34;8.48;;;1.77;;
40433;SDS011;26146;51.114;5.654;2023-05-07T12:27:37;7.80;;;2.33;;
40433;SDS011;26146;51.114;5.654;2023-05-07T12:31:41;9.52;;;2.83;;
40433;SDS011;26146;51.114;5.654;2023-05-07T12:35:43;8.55;;;3.25;;
40433;SDS011;26146;51.114;5.654;2023-05-07T12:39:48;9.85;;;3.10;;
40433;SDS011;26146;51.114;5.654;2023-05-07T12:47:50;6.53;;;1.25;;
40433;SDS011;26146;51.114;5.654;2023-05-07T12:51:51;3.63;;;0.88;;
40433;SDS011;26146;51.114;5.654;2023-05-07T12:55:54;4.63;;;0.90;;
40433;SDS011;26146;51.114;5.654;2023-05-07T12:59:57;3.85;;;0.80;;
40433;SDS011;26146;51.114;5.654;2023-05-07T13:04:03;5.75;;;1.00;;
40433;SDS011;26146;51.114;5.654;2023-05-07T13:08:04;4.80;;;0.90;;
40433;SDS011;26146;51.114;5.654;2023-05-07T13:12:06;3.50;;;0.80;;
40433;SDS011;26146;51.114;5.654;2023-05-07T13:16:08;4.53;;;1.15;;
40433;SDS011;26146;51.114;5.654;2023-05-07T13:20:10;4.28;;;0.90;;
40433;SDS011;26146;51.114;5.654;2023-05-07T13:24:13;4.85;;;1.00;;
40433;SDS011;26146;51.114;5.654;2023-05-07T13:28:14;4.13;;;0.98;;
40433;SDS011;26146;51.114;5.654;2023-05-07T13:32:15;3.58;;;1.00;;
40433;SDS011;26146;51.114;5.654;2023-05-07T13:36:16;4.03;;;0.88;;
40433;SDS011;26146;51.114;5.654;2023-05-07T13:40:17;6.05;;;1.10;;
40433;SDS011;26146;51.114;5.654;2023-05-07T13:44:19;4.32;;;1.15;;
40433;SDS011;26146;51.114;5.654;2023-05-07T13:48:21;4.45;;;1.15;;
40433;SDS011;26146;51.114;5.654;2023-05-07T13:52:22;4.05;;;0.93;;
40433;SDS011;26146;51.114;5.654;2023-05-07T13:56:23;4.70;;;0.90;;
40433;SDS011;26146;51.114;5.654;2023-05-07T14:00:24;5.60;;;1.23;;
40433;SDS011;26146;51.114;5.654;2023-05-07T14:04:26;2.97;;;0.93;;
40433;SDS011;26146;51.114;5.654;2023-05-07T14:08:27;4.85;;;1.30;;
40433;SDS011;26146;51.114;5.654;2023-05-07T14:12:28;3.88;;;1.00;;
40433;SDS011;26146;51.114;5.654;2023-05-07T14:16:29;3.70;;;1.10;;
40433;SDS011;26146;51.114;5.654;2023-05-07T14:20:31;5.03;;;1.30;;
40433;SDS011;26146;51.114;5.654;2023-05-07T14:24:32;4.65;;;1.42;;
40433;SDS011;26146;51.114;5.654;2023-05-07T14:28:33;5.57;;;1.50;;
40433;SDS011;26146;51.114;5.654;2023-05-07T14:32:34;5.40;;;1.65;;
40433;SDS011;26146;51.114;5.654;2023-05-07T14:36:36;5.78;;;1.90;;
40433;SDS011;26146;51.114;5.654;2023-05-07T14:40:38;6.07;;;2.30;;
40433;SDS011;26146;51.114;5.654;2023-05-07T14:44:39;6.60;;;2.47;;
40433;SDS011;26146;51.114;5.654;2023-05-07T14:48:42;8.85;;;3.20;;
40433;SDS011;26146;51.114;5.654;2023-05-07T14:52:45;7.47;;;3.13;;
40433;SDS011;26146;51.114;5.654;2023-05-07T14:56:46;8.52;;;3.58;;
40433;SDS011;26146;51.114;5.654;2023-05-07T15:00:47;9.98;;;3.40;;
40433;SDS011;26146;51.114;5.654;2023-05-07T15:04:48;8.05;;;3.42;;
40433;SDS011;26146;51.114;5.654;2023-05-07T15:08:49;7.80;;;3.30;;
40433;SDS011;26146;51.114;5.654;2023-05-07T15:12:51;8.52;;;3.45;;
40433;SDS011;26146;51.114;5.654;2023-05-07T15:16:52;8.20;;;3.45;;
40433;SDS011;26146;51.114;5.654;2023-05-07T15:20:53;7.35;;;2.63;;
40433;SDS011;26146;51.114;5.654;2023-05-07T15:24:55;7.60;;;2.38;;
40433;SDS011;26146;51.114;5.654;2023-05-07T15:28:57;7.72;;;2.15;;
40433;SDS011;26146;51.114;5.654;2023-05-07T15:32:58;7.63;;;2.03;;
40433;SDS011;26146;51.114;5.654;2023-05-07T15:36:59;8.50;;;2.70;;
40433;SDS011;26146;51.114;5.654;2023-05-07T15:41:01;7.68;;;2.00;;
40433;SDS011;26146;51.114;5.654;2023-05-07T15:45:02;7.80;;;2.33;;
40433;SDS011;26146;51.114;5.654;2023-05-07T15:49:03;7.70;;;2.17;;
40433;SDS011;26146;51.114;5.654;2023-05-07T15:53:04;5.85;;;1.55;;
40433;SDS011;26146;51.114;5.654;2023-05-07T15:57:05;5.90;;;1.20;;
40433;SDS011;26146;51.114;5.654;2023-05-07T16:01:07;4.88;;;1.10;;
40433;SDS011;26146;51.114;5.654;2023-05-07T16:05:08;7.72;;;1.90;;
40433;SDS011;26146;51.114;5.654;2023-05-07T16:09:10;6.13;;;1.80;;
40433;SDS011;26146;51.114;5.654;2023-05-07T16:13:11;5.63;;;1.55;;
40433;SDS011;26146;51.114;5.654;2023-05-07T16:17:12;5.40;;;1.50;;
40433;SDS011;26146;51.114;5.654;2023-05-07T16:21:13;6.53;;;2.00;;
40433;SDS011;26146;51.114;5.654;2023-05-07T16:25:14;6.25;;;1.48;;
40433;SDS011;26146;51.114;5.654;2023-05-07T16:29:16;6.80;;;1.70;;
40433;SDS011;26146;51.114;5.654;2023-05-07T16:33:17;5.95;;;1.50;;
40433;SDS011;26146;51.114;5.654;2023-05-07T16:37:19;5.88;;;1.70;;
40433;SDS011;26146;51.114;5.654;2023-05-07T16:41:20;6.55;;;1.73;;
40433;SDS011;26146;51.114;5.654;2023-05-07T16:45:22;5.80;;;1.75;;
40433;SDS011;26146;51.114;5.654;2023-05-07T16:49:23;5.68;;;1.65;;
40433;SDS011;26146;51.114;5.654;2023-05-07T16:53:24;4.70;;;1.40;;
40433;SDS011;26146;51.114;5.654;2023-05-07T16:57:26;6.05;;;1.65;;
40433;SDS011;26146;51.114;5.654;2023-05-07T17:01:28;8.00;;;1.83;;
40433;SDS011;26146;51.114;5.654;2023-05-07T17:05:31;6.10;;;1.42;;
40433;SDS011;26146;51.114;5.654;2023-05-07T17:09:33;5.07;;;1.35;;
40433;SDS011;26146;51.114;5.654;2023-05-07T17:13:34;6.32;;;1.40;;
40433;SDS011;26146;51.114;5.654;2023-05-07T17:17:35;5.50;;;1.40;;
40433;SDS011;26146;51.114;5.654;2023-05-07T17:21:36;6.15;;;1.45;;
40433;SDS011;26146;51.114;5.654;2023-05-07T17:25:37;6.18;;;1.50;;
40433;SDS011;26146;51.114;5.654;2023-05-07T17:29:39;5.75;;;1.60;;
40433;SDS011;26146;51.114;5.654;2023-05-07T17:33:40;6.22;;;1.70;;
40433;SDS011;26146;51.114;5.654;2023-05-07T17:37:41;5.82;;;1.50;;
40433;SDS011;26146;51.114;5.654;2023-05-07T17:45:47;5.18;;;1.50;;
40433;SDS011;26146;51.114;5.654;2023-05-07T17:49:48;5.85;;;1.40;;
40433;SDS011;26146;51.114;5.654;2023-05-07T17:53:50;6.55;;;2.20;;
40433;SDS011;26146;51.114;5.654;2023-05-07T17:57:51;7.10;;;2.50;;
40433;SDS011;26146;51.114;5.654;2023-05-07T18:01:52;8.65;;;3.30;;
40433;SDS011;26146;51.114;5.654;2023-05-07T18:05:54;9.65;;;3.75;;
40433;SDS011;26146;51.114;5.654;2023-05-07T18:09:55;7.88;;;3.70;;
40433;SDS011;26146;51.114;5.654;2023-05-07T18:13:56;9.40;;;4.80;;
40433;SDS011;26146;51.114;5.654;2023-05-07T18:17:57;10.90;;;5.22;;
40433;SDS011;26146;51.114;5.654;2023-05-07T18:21:59;9.68;;;5.18;;
40433;SDS011;26146;51.114;5.654;2023-05-07T18:26:00;9.07;;;5.05;;
40433;SDS011;26146;51.114;5.654;2023-05-07T18:30:01;8.48;;;4.50;;
40433;SDS011;26146;51.114;5.654;2023-05-07T18:34:04;11.68;;;5.82;;
40433;SDS011;26146;51.114;5.654;2023-05-07T18:38:05;11.75;;;6.40;;
40433;SDS011;26146;51.114;5.654;2023-05-07T18:42:07;10.00;;;5.97;;
40433;SDS011;26146;51.114;5.654;2023-05-07T18:46:08;10.05;;;6.03;;
40433;SDS011;26146;51.114;5.654;2023-05-07T18:50:10;12.85;;;6.63;;
40433;SDS011;26146;51.114;5.654;2023-05-07T18:54:11;12.63;;;6.60;;
40433;SDS011;26146;51.114;5.654;2023-05-07T18:58:13;10.23;;;6.57;;
40433;SDS011;26146;51.114;5.654;2023-05-07T19:02:16;11.35;;;7.03;;
40433;SDS011;26146;51.114;5.654;2023-05-07T19:06:17;17.92;;;7.75;;
40433;SDS011;26146;51.114;5.654;2023-05-07T19:10:20;11.70;;;7.30;;
40433;SDS011;26146;51.114;5.654;2023-05-07T19:14:22;12.23;;;7.65;;
40433;SDS011;26146;51.114;5.654;2023-05-07T19:18:23;13.10;;;7.75;;
40433;SDS011;26146;51.114;5.654;2023-05-07T19:22:25;12.88;;;7.70;;
40433;SDS011;26146;51.114;5.654;2023-05-07T19:26:26;14.20;;;7.65;;
40433;SDS011;26146;51.114;5.654;2023-05-07T19:30:27;13.73;;;8.63;;
40433;SDS011;26146;51.114;5.654;2023-05-07T19:34:29;13.65;;;7.97;;
40433;SDS011;26146;51.114;5.654;2023-05-07T19:38:30;12.70;;;7.55;;
40433;SDS011;26146;51.114;5.654;2023-05-07T19:42:32;12.45;;;7.78;;
40433;SDS011;26146;51.114;5.654;2023-05-07T19:46:33;11.65;;;7.43;;
40433;SDS011;26146;51.114;5.654;2023-05-07T19:50:35;11.55;;;6.72;;
40433;SDS011;26146;51.114;5.654;2023-05-07T19:54:36;12.07;;;6.95;;
40433;SDS011;26146;51.114;5.654;2023-05-07T19:58:38;13.57;;;7.80;;
40433;SDS011;26146;51.114;5.654;2023-05-07T20:02:39;12.52;;;7.63;;
40433;SDS011;26146;51.114;5.654;2023-05-07T20:06:40;12.73;;;7.68;;
40433;SDS011;26146;51.114;5.654;2023-05-07T20:10:41;12.80;;;7.35;;
40433;SDS011;26146;51.114;5.654;2023-05-07T20:14:42;13.02;;;7.38;;
40433;SDS011;26146;51.114;5.654;2023-05-07T20:18:44;13.52;;;7.90;;
40433;SDS011;26146;51.114;5.654;2023-05-07T20:22:45;13.93;;;8.27;;
40433;SDS011;26146;51.114;5.654;2023-05-07T20:26:46;14.32;;;8.10;;
40433;SDS011;26146;51.114;5.654;2023-05-07T20:30:47;13.25;;;7.97;;
40433;SDS011;26146;51.114;5.654;2023-05-07T20:34:48;14.82;;;8.20;;
40433;SDS011;26146;51.114;5.654;2023-05-07T20:38:50;14.95;;;8.60;;
40433;SDS011;26146;51.114;5.654;2023-05-07T20:42:51;12.90;;;8.27;;
40433;SDS011;26146;51.114;5.654;2023-05-07T20:46:52;15.35;;;8.25;;
40433;SDS011;26146;51.114;5.654;2023-05-07T20:50:54;13.75;;;8.57;;
40433;SDS011;26146;51.114;5.654;2023-05-07T20:54:59;12.73;;;8.48;;
40433;SDS011;26146;51.114;5.654;2023-05-07T20:59:00;15.20;;;8.70;;
40433;SDS011;26146;51.114;5.654;2023-05-07T21:03:01;14.30;;;9.13;;
40433;SDS011;26146;51.114;5.654;2023-05-07T21:07:03;13.73;;;9.15;;
40433;SDS011;26146;51.114;5.654;2023-05-07T21:11:04;14.25;;;9.55;;
40433;SDS011;26146;51.114;5.654;2023-05-07T21:15:05;15.57;;;9.70;;
40433;SDS011;26146;51.114;5.654;2023-05-07T21:19:07;14.50;;;9.75;;
40433;SDS011;26146;51.114;5.654;2023-05-07T21:23:08;16.02;;;9.48;;
40433;SDS011;26146;51.114;5.654;2023-05-07T21:27:09;14.57;;;9.32;;
40433;SDS011;26146;51.114;5.654;2023-05-07T21:31:11;13.98;;;9.60;;
40433;SDS011;26146;51.114;5.654;2023-05-07T21:35:12;14.27;;;9.85;;
40433;SDS011;26146;51.114;5.654;2023-05-07T21:39:13;13.88;;;9.25;;
40433;SDS011;26146;51.114;5.654;2023-05-07T21:43:14;15.00;;;9.77;;
40433;SDS011;26146;51.114;5.654;2023-05-07T21:47:15;15.40;;;10.80;;
40433;SDS011;26146;51.114;5.654;2023-05-07T21:51:16;16.15;;;11.07;;
40433;SDS011;26146;51.114;5.654;2023-05-07T21:55:17;14.77;;;10.90;;
40433;SDS011;26146;51.114;5.654;2023-05-07T21:59:18;15.90;;;10.77;;
40433;SDS011;26146;51.114;5.654;2023-05-07T22:03:20;15.40;;;10.43;;
40433;SDS011;26146;51.114;5.654;2023-05-07T22:07:21;14.95;;;9.88;;
40433;SDS011;26146;51.114;5.654;2023-05-07T22:11:22;13.65;;;10.15;;
40433;SDS011;26146;51.114;5.654;2023-05-07T22:15:23;15.13;;;9.90;;
40433;SDS011;26146;51.114;5.654;2023-05-07T22:19:24;14.25;;;10.00;;
40433;SDS011;26146;51.114;5.654;2023-05-07T22:23:25;15.45;;;10.50;;
40433;SDS011;26146;51.114;5.654;2023-05-07T22:27:26;13.52;;;9.43;;
40433;SDS011;26146;51.114;5.654;2023-05-07T22:31:29;14.55;;;9.75;;
40433;SDS011;26146;51.114;5.654;2023-05-07T22:35:30;14.38;;;9.80;;
40433;SDS011;26146;51.114;5.654;2023-05-07T22:39:31;13.50;;;9.27;;
40433;SDS011;26146;51.114;5.654;2023-05-07T22:43:34;15.13;;;9.63;;
40433;SDS011;26146;51.114;5.654;2023-05-07T22:47:35;15.90;;;9.57;;
40433;SDS011;26146;51.114;5.654;2023-05-07T22:51:36;14.55;;;10.35;;
40433;SDS011;26146;51.114;5.654;2023-05-07T22:55:37;16.33;;;10.82;;
40433;SDS011;26146;51.114;5.654;2023-05-07T22:59:38;15.32;;;10.65;;
40433;SDS011;26146;51.114;5.654;2023-05-07T23:03:40;15.85;;;10.32;;
40433;SDS011;26146;51.114;5.654;2023-05-07T23:07:41;13.68;;;10.13;;
40433;SDS011;26146;51.114;5.654;2023-05-07T23:11:42;15.27;;;10.45;;
40433;SDS011;26146;51.114;5.654;2023-05-07T23:15:43;16.30;;;10.63;;
40433;SDS011;26146;51.114;5.654;2023-05-07T23:19:44;15.23;;;10.65;;
40433;SDS011;26146;51.114;5.654;2023-05-07T23:23:45;17.05;;;11.55;;
40433;SDS011;26146;51.114;5.654;2023-05-07T23:27:50;15.93;;;10.55;;
40433;SDS011;26146;51.114;5.654;2023-05-07T23:31:51;14.85;;;10.85;;
40433;SDS011;26146;51.114;5.654;2023-05-07T23:36:02;15.13;;;10.73;;
40433;SDS011;26146;51.114;5.654;2023-05-07T23:40:05;15.25;;;10.88;;
40433;SDS011;26146;51.114;5.654;2023-05-07T23:44:06;15.02;;;10.45;;
40433;SDS011;26146;51.114;5.654;2023-05-07T23:48:08;16.05;;;10.90;;
40433;SDS011;26146;51.114;5.654;2023-05-07T23:52:09;14.77;;;10.63;;
40433;SDS011;26146;51.114;5.654;2023-05-07T23:56:10;16.30;;;10.80;;
